createdAt,value
2018-07-24T00:03:57.118Z,19.90
2018-07-24T00:06:27.420Z,19.80
2018-07-24T00:08:57.696Z,19.80
2018-07-24T00:11:27.985Z,19.80
2018-07-24T00:13:58.265Z,19.90
2018-07-24T00:16:28.514Z,19.80
2018-07-24T00:18:58.777Z,19.80
2018-07-24T00:21:29.028Z,19.80
2018-07-24T00:23:59.581Z,19.70
2018-07-24T00:26:30.031Z,19.60
2018-07-24T00:29:00.272Z,19.60
2018-07-24T00:31:30.570Z,19.60
2018-07-24T00:34:00.824Z,19.50
2018-07-24T00:36:31.083Z,19.40
2018-07-24T00:39:01.327Z,19.40
2018-07-24T00:41:31.598Z,19.50
2018-07-24T00:44:01.878Z,19.40
2018-07-24T00:46:32.130Z,19.40
2018-07-24T00:49:02.397Z,19.40
2018-07-24T00:51:32.655Z,19.50
2018-07-24T00:54:02.918Z,19.40
2018-07-24T00:56:33.157Z,19.40
2018-07-24T00:59:03.517Z,19.30
2018-07-24T01:01:33.920Z,19.30
2018-07-24T01:04:04.252Z,19.20
2018-07-24T01:06:34.493Z,19.20
2018-07-24T01:09:07.705Z,19.20
2018-07-24T01:11:37.961Z,19.20
2018-07-24T01:14:08.787Z,19.30
2018-07-24T01:16:39.024Z,19.30
2018-07-24T01:19:09.327Z,19.20
2018-07-24T01:21:39.598Z,19.20
2018-07-24T01:24:09.870Z,19.20
2018-07-24T01:26:40.116Z,19.10
2018-07-24T01:29:10.392Z,19.10
2018-07-24T01:31:40.621Z,19.10
2018-07-24T01:34:10.916Z,19.10
2018-07-24T01:36:41.143Z,19.00
2018-07-24T01:39:11.900Z,19.00
2018-07-24T01:41:42.160Z,19.00
2018-07-24T01:44:12.437Z,19.00
2018-07-24T01:46:42.693Z,18.90
2018-07-24T01:49:12.980Z,18.90
2018-07-24T01:51:43.244Z,18.80
2018-07-24T01:54:13.522Z,18.80
2018-07-24T01:56:43.766Z,18.80
2018-07-24T01:59:14.047Z,18.80
2018-07-24T02:01:44.407Z,18.80
2018-07-24T02:04:14.665Z,18.80
2018-07-24T02:06:44.921Z,18.80
2018-07-24T02:09:15.176Z,18.80
2018-07-24T02:11:45.468Z,18.80
2018-07-24T02:14:15.734Z,18.70
2018-07-24T02:16:45.996Z,18.70
2018-07-24T02:19:16.306Z,18.70
2018-07-24T02:21:46.566Z,18.70
2018-07-24T02:24:16.821Z,18.70
2018-07-24T02:26:47.107Z,18.70
2018-07-24T02:29:17.372Z,18.60
2018-07-24T02:31:47.669Z,18.60
2018-07-24T02:34:17.893Z,18.60
2018-07-24T02:36:48.213Z,18.60
2018-07-24T02:39:18.468Z,18.60
2018-07-24T02:41:48.781Z,18.60
2018-07-24T02:44:19.081Z,18.60
2018-07-24T02:46:49.357Z,18.50
2018-07-24T02:49:19.639Z,18.50
2018-07-24T02:51:49.888Z,18.60
2018-07-24T02:54:20.205Z,18.50
2018-07-24T02:56:50.469Z,18.50
2018-07-24T02:59:20.887Z,18.50
2018-07-24T03:01:51.203Z,18.40
2018-07-24T03:04:21.485Z,18.50
2018-07-24T03:06:51.729Z,18.40
2018-07-24T03:09:22.034Z,18.40
2018-07-24T03:11:52.349Z,18.40
2018-07-24T03:14:22.696Z,18.40
2018-07-24T03:16:52.979Z,18.40
2018-07-24T03:19:23.224Z,18.40
2018-07-24T03:21:53.499Z,18.40
2018-07-24T03:24:23.802Z,18.40
2018-07-24T03:26:54.090Z,18.40
2018-07-24T03:29:24.405Z,18.40
2018-07-24T03:31:54.714Z,18.40
2018-07-24T03:34:25.036Z,18.40
2018-07-24T03:36:55.347Z,18.40
2018-07-24T03:39:25.577Z,18.40
2018-07-24T03:41:55.894Z,18.30
2018-07-24T03:44:26.150Z,18.30
2018-07-24T03:46:56.452Z,18.40
2018-07-24T03:49:26.698Z,18.30
2018-07-24T03:51:56.969Z,18.30
2018-07-24T03:54:27.225Z,18.40
2018-07-24T03:56:57.489Z,18.40
2018-07-24T03:59:27.768Z,18.50
2018-07-24T04:01:58.034Z,18.60
2018-07-24T04:04:28.326Z,18.60
2018-07-24T04:06:58.652Z,18.60
2018-07-24T04:09:28.988Z,18.70
2018-07-24T04:11:59.338Z,18.70
2018-07-24T04:14:29.696Z,18.70
2018-07-24T04:16:59.992Z,18.80
2018-07-24T04:19:30.298Z,18.90
2018-07-24T04:24:30.575Z,19.00
2018-07-24T04:27:00.887Z,19.00
2018-07-24T04:29:31.205Z,19.00
2018-07-24T04:32:01.426Z,19.10
2018-07-24T04:34:31.706Z,19.20
2018-07-24T04:37:01.970Z,19.20
2018-07-24T04:39:32.277Z,19.30
2018-07-24T04:42:02.584Z,19.40
2018-07-24T04:44:32.921Z,19.50
2018-07-24T04:47:03.205Z,19.50
2018-07-24T04:49:33.482Z,19.60
2018-07-24T04:52:03.817Z,19.70
2018-07-24T04:54:34.115Z,19.80
2018-07-24T04:57:04.453Z,19.90
2018-07-24T04:59:34.760Z,20.00
2018-07-24T05:02:05.106Z,20.10
2018-07-24T05:04:35.393Z,20.10
2018-07-24T05:07:05.834Z,20.30
2018-07-24T05:09:36.203Z,20.30
2018-07-24T05:12:06.505Z,20.50
2018-07-24T05:14:36.748Z,20.60
2018-07-24T05:17:07.037Z,20.70
2018-07-24T05:19:37.296Z,20.80
2018-07-24T05:22:07.649Z,21.00
2018-07-24T05:24:37.965Z,21.00
2018-07-24T05:27:08.392Z,21.10
2018-07-24T05:29:38.682Z,21.10
2018-07-24T05:32:09.330Z,21.20
2018-07-24T05:34:40.123Z,21.20
2018-07-24T05:37:10.378Z,21.20
2018-07-24T05:39:40.673Z,21.20
2018-07-24T05:42:10.940Z,21.30
2018-07-24T05:44:41.254Z,21.30
2018-07-24T05:47:11.550Z,21.40
2018-07-24T05:49:41.809Z,21.40
2018-07-24T05:52:12.069Z,21.40
2018-07-24T05:54:42.305Z,21.40
2018-07-24T05:57:12.581Z,21.40
2018-07-24T05:59:42.878Z,21.40
2018-07-24T06:02:13.788Z,21.40
2018-07-24T06:04:44.014Z,21.40
2018-07-24T06:09:44.213Z,21.40
2018-07-24T06:12:14.537Z,21.40
2018-07-24T06:14:44.853Z,21.40
2018-07-24T06:17:15.248Z,21.40
2018-07-24T06:19:45.901Z,21.30
2018-07-24T06:22:16.148Z,21.30
2018-07-24T06:24:47.200Z,21.40
2018-07-24T06:27:17.492Z,21.40
2018-07-24T06:29:47.802Z,21.50
2018-07-24T06:32:18.074Z,21.50
2018-07-24T06:34:48.394Z,21.50
2018-07-24T06:37:18.656Z,21.60
2018-07-24T06:39:49.241Z,21.70
2018-07-24T06:42:19.742Z,21.80
2018-07-24T06:44:50.048Z,21.90
2018-07-24T06:47:20.383Z,21.90
2018-07-24T06:49:51.261Z,21.90
2018-07-24T06:52:21.600Z,22.00
2018-07-24T06:54:51.917Z,22.10
2018-07-24T06:57:22.245Z,22.20
2018-07-24T06:59:52.511Z,22.20
2018-07-24T07:02:22.776Z,22.30
2018-07-24T07:04:53.033Z,22.40
2018-07-24T07:07:23.296Z,22.50
2018-07-24T07:09:54.105Z,22.50
2018-07-24T07:12:24.585Z,22.70
2018-07-24T07:14:54.856Z,22.80
2018-07-24T07:17:25.136Z,22.80
2018-07-24T07:19:55.918Z,22.90
2018-07-24T07:22:26.668Z,22.90
2018-07-24T07:24:56.944Z,22.90
2018-07-24T07:27:27.234Z,22.90
2018-07-24T07:29:57.523Z,23.00
2018-07-24T07:32:27.899Z,23.00
2018-07-24T07:34:58.157Z,23.10
2018-07-24T07:37:28.396Z,23.30
2018-07-24T07:39:58.754Z,23.50
2018-07-24T07:42:29.297Z,23.60
2018-07-24T07:44:59.606Z,23.60
2018-07-24T07:47:29.904Z,23.70
2018-07-24T07:50:00.720Z,23.80
2018-07-24T07:52:31.060Z,23.90
2018-07-24T07:55:01.262Z,23.90
2018-07-24T07:57:31.609Z,23.90
2018-07-24T08:00:01.917Z,24.00
2018-07-24T08:02:32.355Z,24.00
2018-07-24T08:05:02.900Z,24.10
2018-07-24T08:07:33.330Z,24.00
2018-07-24T08:10:03.683Z,24.10
2018-07-24T08:12:34.024Z,24.20
2018-07-24T08:15:04.895Z,24.20
2018-07-24T08:17:35.570Z,24.20
2018-07-24T08:20:06.589Z,24.30
2018-07-24T08:22:37.223Z,24.40
2018-07-24T08:25:08.666Z,24.50
2018-07-24T08:27:39.037Z,24.60
2018-07-24T08:30:09.333Z,24.70
2018-07-24T08:32:39.662Z,24.80
2018-07-24T08:35:09.957Z,24.90
2018-07-24T08:37:40.257Z,25.00
2018-07-24T08:40:10.580Z,25.10
2018-07-24T08:42:40.875Z,25.10
2018-07-24T08:47:41.093Z,25.20
2018-07-24T08:50:11.434Z,25.30
2018-07-24T08:52:42.049Z,25.40
2018-07-24T08:55:12.456Z,25.40
2018-07-24T08:57:42.649Z,25.60
2018-07-24T09:00:12.947Z,25.80
2018-07-24T09:02:43.429Z,26.00
2018-07-24T09:05:13.930Z,26.30
2018-07-24T09:07:44.264Z,26.40
2018-07-24T09:10:14.700Z,26.40
2018-07-24T09:15:14.845Z,26.20
2018-07-24T09:17:45.256Z,26.10
2018-07-24T09:20:15.615Z,26.10
2018-07-24T09:22:45.969Z,26.20
2018-07-24T09:25:16.356Z,26.20
2018-07-24T09:27:46.841Z,26.30
2018-07-24T09:30:17.178Z,26.40
2018-07-24T09:32:47.504Z,26.40
2018-07-24T09:35:17.865Z,26.30
2018-07-24T09:37:48.318Z,26.30
2018-07-24T09:40:18.715Z,26.30
2018-07-24T09:42:49.044Z,26.40
2018-07-24T09:45:19.373Z,26.50
2018-07-24T09:47:49.685Z,26.60
2018-07-24T09:50:20.068Z,26.50
2018-07-24T09:52:50.444Z,26.60
2018-07-24T09:55:22.126Z,26.60
2018-07-24T09:57:52.487Z,26.60
2018-07-24T10:00:48.220Z,26.50
2018-07-24T10:03:18.566Z,26.60
2018-07-24T10:05:48.970Z,26.80
2018-07-24T10:08:19.288Z,26.50
2018-07-24T10:10:49.698Z,27.00
2018-07-24T10:13:20.025Z,27.10
2018-07-24T10:15:50.316Z,27.10
2018-07-24T10:18:20.590Z,27.20
2018-07-24T10:20:51.028Z,27.40
2018-07-24T10:23:21.394Z,27.40
2018-07-24T10:25:51.693Z,27.50
2018-07-24T10:28:21.969Z,27.50
2018-07-24T10:30:52.301Z,27.50
2018-07-24T10:33:22.680Z,27.50
2018-07-24T10:35:53.018Z,27.50
2018-07-24T10:38:23.414Z,27.20
2018-07-24T10:40:53.740Z,27.20
2018-07-24T10:43:24.088Z,27.10
2018-07-24T10:45:54.468Z,27.20
2018-07-24T10:48:24.826Z,27.30
2018-07-24T10:50:55.139Z,27.40
2018-07-24T10:53:26.073Z,27.70
2018-07-24T10:55:56.417Z,28.00
2018-07-24T10:58:26.946Z,28.40
2018-07-24T11:00:57.425Z,28.60
2018-07-24T11:03:27.805Z,28.90
2018-07-24T11:05:58.245Z,29.20
2018-07-24T11:08:28.629Z,29.50
2018-07-24T11:10:59.193Z,29.70
2018-07-24T11:13:29.489Z,29.90
2018-07-24T11:15:59.923Z,30.20
2018-07-24T11:18:30.351Z,30.50
2018-07-24T11:21:00.715Z,30.60
2018-07-24T11:23:31.156Z,31.10
2018-07-24T11:26:01.445Z,31.20
2018-07-24T11:28:31.882Z,31.20
2018-07-24T11:31:02.285Z,30.90
2018-07-24T11:33:32.796Z,31.00
2018-07-24T11:36:03.337Z,31.40
2018-07-24T11:38:33.588Z,31.80
2018-07-24T11:41:04.001Z,31.60
2018-07-24T11:43:34.313Z,31.60
2018-07-24T11:46:04.803Z,31.50
2018-07-24T11:48:35.148Z,31.40
2018-07-24T11:51:05.548Z,31.40
2018-07-24T11:53:35.888Z,31.30
2018-07-24T11:56:06.265Z,31.10
2018-07-24T11:58:36.671Z,31.00
2018-07-24T12:01:07.064Z,31.00
2018-07-24T12:03:37.477Z,30.70
2018-07-24T12:06:07.856Z,30.80
2018-07-24T12:11:08.979Z,30.70
2018-07-24T12:13:39.394Z,30.50
2018-07-24T12:16:09.781Z,30.80
2018-07-24T12:18:40.177Z,31.20
2018-07-24T12:21:10.567Z,31.80
2018-07-24T12:23:41.812Z,31.90
2018-07-24T12:26:12.177Z,31.70
2018-07-24T12:28:42.490Z,32.00
2018-07-24T12:31:13.228Z,32.20
2018-07-24T12:33:43.642Z,32.00
2018-07-24T12:36:14.198Z,32.40
2018-07-24T12:38:44.446Z,33.30
2018-07-24T12:41:14.796Z,34.20
2018-07-24T12:43:45.143Z,34.60
2018-07-24T12:46:15.537Z,34.80
2018-07-24T12:48:45.995Z,35.00
2018-07-24T12:51:16.488Z,34.70
2018-07-24T12:53:47.016Z,35.30
2018-07-24T12:56:17.372Z,35.30
2018-07-24T12:58:47.680Z,35.10
2018-07-24T13:01:18.133Z,34.80
2018-07-24T13:03:48.402Z,34.80
2018-07-24T13:06:18.836Z,35.40
2018-07-24T13:08:49.165Z,35.80
2018-07-24T13:11:19.560Z,36.80
2018-07-24T13:13:49.973Z,37.60
2018-07-24T13:16:20.289Z,37.60
2018-07-24T13:18:50.801Z,37.60
2018-07-24T13:21:21.290Z,37.40
2018-07-24T13:23:51.726Z,36.60
2018-07-24T13:26:22.056Z,36.10
2018-07-24T13:28:52.498Z,36.40
2018-07-24T13:31:22.829Z,36.40
2018-07-24T13:33:53.249Z,35.60
2018-07-24T13:36:23.644Z,35.70
2018-07-24T13:38:53.950Z,35.50
2018-07-24T13:41:24.326Z,35.90
2018-07-24T13:43:54.749Z,36.00
2018-07-24T13:46:25.108Z,36.20
2018-07-24T13:48:56.016Z,35.80
2018-07-24T13:51:26.388Z,35.80
2018-07-24T13:53:56.820Z,35.90
2018-07-24T13:56:27.521Z,36.20
2018-07-24T13:58:58.048Z,36.10
2018-07-24T14:01:28.425Z,36.40
2018-07-24T14:03:58.786Z,36.50
2018-07-24T14:06:29.193Z,36.10
2018-07-24T14:08:59.543Z,35.80
2018-07-24T14:11:29.879Z,36.20
2018-07-24T14:14:00.301Z,36.20
2018-07-24T14:16:30.699Z,35.70
2018-07-24T14:19:01.206Z,36.10
2018-07-24T14:21:31.986Z,36.20
2018-07-24T14:24:02.415Z,36.30
2018-07-24T14:26:32.801Z,36.10
2018-07-24T14:29:03.249Z,35.00
2018-07-24T14:31:34.048Z,34.40
2018-07-24T14:34:04.441Z,34.30
2018-07-24T14:36:34.813Z,34.50
2018-07-24T14:39:09.047Z,34.70
2018-07-24T14:41:39.408Z,35.10
2018-07-24T14:44:09.721Z,35.20
2018-07-24T14:46:40.059Z,35.50
2018-07-24T14:49:10.369Z,35.70
2018-07-24T14:51:40.724Z,35.70
2018-07-24T14:54:11.101Z,35.00
2018-07-24T14:56:41.499Z,35.00
2018-07-24T14:59:11.882Z,35.70
2018-07-24T15:04:12.170Z,36.60
2018-07-24T15:06:43.321Z,37.30
2018-07-24T15:09:13.706Z,37.20
2018-07-24T15:11:44.000Z,37.80
2018-07-24T15:14:14.340Z,38.00
2018-07-24T15:16:44.722Z,38.30
2018-07-24T15:19:15.087Z,37.50
2018-07-24T15:21:45.347Z,37.70
2018-07-24T15:24:15.692Z,37.50
2018-07-24T15:26:46.111Z,38.00
2018-07-24T15:29:16.558Z,38.10
2018-07-24T15:31:46.979Z,38.40
2018-07-24T15:34:17.454Z,38.10
2018-07-24T15:36:47.629Z,38.40
2018-07-24T15:39:17.959Z,38.90
2018-07-24T15:41:48.369Z,38.50
2018-07-24T15:44:18.783Z,38.80
2018-07-24T15:46:49.092Z,39.40
2018-07-24T15:49:19.384Z,40.00
2018-07-24T15:51:49.792Z,40.30
2018-07-24T15:54:20.121Z,40.70
2018-07-24T15:56:50.404Z,40.20
2018-07-24T15:59:21.653Z,40.80
2018-07-24T16:01:51.957Z,41.00
2018-07-24T16:04:22.369Z,41.10
2018-07-24T16:06:53.208Z,41.40
2018-07-24T16:09:23.575Z,41.40
2018-07-24T16:11:53.882Z,41.30
2018-07-24T16:14:24.249Z,42.20
2018-07-24T16:16:54.588Z,42.60
2018-07-24T16:19:25.335Z,42.10
2018-07-24T16:21:55.741Z,41.60
2018-07-24T16:24:26.089Z,42.00
2018-07-24T16:26:56.481Z,42.00
2018-07-24T16:29:27.068Z,41.80
2018-07-24T16:31:57.428Z,41.70
2018-07-24T16:34:27.914Z,41.80
2018-07-24T16:36:58.260Z,41.40
2018-07-24T16:39:28.798Z,41.60
2018-07-24T16:41:59.113Z,41.20
2018-07-24T16:44:29.570Z,41.50
2018-07-24T16:46:59.986Z,41.50
2018-07-24T16:49:30.327Z,40.90
2018-07-24T16:52:00.605Z,40.60
2018-07-24T16:54:31.108Z,40.00
2018-07-24T16:57:01.428Z,39.80
2018-07-24T16:59:31.799Z,39.50
2018-07-24T17:02:02.114Z,39.00
2018-07-24T17:04:32.497Z,38.60
2018-07-24T17:07:02.853Z,38.30
2018-07-24T17:09:33.207Z,36.90
2018-07-24T17:12:03.767Z,35.90
2018-07-24T17:14:34.185Z,34.50
2018-07-24T17:17:05.599Z,33.50
2018-07-24T17:19:35.943Z,32.30
2018-07-24T17:22:06.439Z,31.90
2018-07-24T17:24:36.790Z,31.40
2018-07-24T17:27:07.166Z,31.00
2018-07-24T17:29:37.480Z,30.60
2018-07-24T17:34:37.809Z,30.00
2018-07-24T17:37:08.129Z,29.70
2018-07-24T17:39:38.436Z,29.40
2018-07-24T17:42:08.709Z,29.20
2018-07-24T17:44:39.057Z,28.90
2018-07-24T17:47:09.368Z,28.70
2018-07-24T17:49:39.625Z,28.50
2018-07-24T17:52:09.954Z,28.30
2018-07-24T17:54:40.204Z,28.20
2018-07-24T17:57:10.553Z,28.00
2018-07-24T17:59:40.844Z,27.90
2018-07-24T18:02:11.527Z,27.80
2018-07-24T18:04:41.855Z,27.70
2018-07-24T18:07:12.128Z,27.60
2018-07-24T18:09:42.437Z,27.50
2018-07-24T18:12:12.970Z,27.30
2018-07-24T18:14:43.324Z,27.10
2018-07-24T18:17:14.049Z,27.00
2018-07-24T18:19:44.352Z,26.90
2018-07-24T18:22:14.654Z,26.70
2018-07-24T18:24:45.107Z,26.60
2018-07-24T18:27:15.375Z,26.50
2018-07-24T18:29:45.668Z,26.30
2018-07-24T18:32:15.974Z,26.20
2018-07-24T18:34:46.344Z,26.00
2018-07-24T18:37:16.633Z,25.90
2018-07-24T18:39:46.941Z,25.70
2018-07-24T18:42:17.232Z,25.60
2018-07-24T18:44:47.678Z,25.40
2018-07-24T18:47:18.017Z,25.30
2018-07-24T18:49:48.329Z,25.10
2018-07-24T18:52:18.610Z,25.10
2018-07-24T18:54:49.498Z,25.00
2018-07-24T18:57:19.828Z,24.90
2018-07-24T18:59:50.176Z,24.80
2018-07-24T19:02:20.614Z,24.70
2018-07-24T19:04:50.981Z,24.60
2018-07-24T19:07:21.254Z,24.60
2018-07-24T19:09:51.526Z,24.50
2018-07-24T19:12:22.092Z,24.50
2018-07-24T19:14:52.471Z,24.50
2018-07-24T19:17:22.880Z,24.40
2018-07-24T19:19:53.172Z,24.20
2018-07-24T19:22:23.586Z,24.20
2018-07-24T19:24:53.902Z,24.10
2018-07-24T19:27:24.220Z,24.00
2018-07-24T19:29:55.457Z,23.90
2018-07-24T19:32:25.770Z,23.70
2018-07-24T19:34:56.088Z,23.60
2018-07-24T19:37:26.393Z,23.60
2018-07-24T19:39:56.681Z,23.50
2018-07-24T19:42:27.078Z,23.50
2018-07-24T19:44:57.425Z,23.40
2018-07-24T19:47:27.654Z,23.30
2018-07-24T19:49:57.997Z,23.30
2018-07-24T19:52:28.408Z,23.20
2018-07-24T19:54:58.663Z,23.10
2018-07-24T19:57:29.009Z,23.00
2018-07-24T19:59:59.255Z,22.90
2018-07-24T20:02:29.530Z,23.00
2018-07-24T20:04:59.792Z,23.00
2018-07-24T20:07:30.161Z,22.90
2018-07-24T20:10:00.473Z,22.80
2018-07-24T20:12:31.093Z,22.70
2018-07-24T20:15:01.430Z,22.60
2018-07-24T20:17:31.692Z,22.50
2018-07-24T20:20:02.058Z,22.40
2018-07-24T20:22:32.321Z,22.30
2018-07-24T20:25:02.556Z,22.30
2018-07-24T20:27:33.001Z,22.30
2018-07-24T20:30:03.294Z,22.30
2018-07-24T20:32:33.866Z,22.30
2018-07-24T20:35:04.360Z,22.20
2018-07-24T20:37:34.616Z,22.20
2018-07-24T20:40:05.696Z,22.20
2018-07-24T20:45:06.513Z,22.00
2018-07-24T20:47:36.729Z,22.00
2018-07-24T20:50:07.100Z,21.90
2018-07-24T20:52:37.331Z,21.80
2018-07-24T20:55:07.584Z,21.70
2018-07-24T20:57:37.855Z,21.70
2018-07-24T21:00:08.136Z,21.60
2018-07-24T21:02:38.408Z,21.70
2018-07-24T21:07:38.557Z,21.60
2018-07-24T21:10:14.191Z,21.60
2018-07-24T21:12:50.681Z,21.50
2018-07-24T21:15:21.052Z,21.50
2018-07-24T21:17:51.329Z,21.40
2018-07-24T21:20:21.780Z,21.40
2018-07-24T21:22:52.027Z,21.30
2018-07-24T21:25:22.311Z,21.30
2018-07-24T21:27:52.645Z,21.30
2018-07-24T21:30:22.929Z,21.30
2018-07-24T21:32:53.260Z,21.20
2018-07-24T21:35:23.525Z,21.20
2018-07-24T21:37:53.797Z,21.30
2018-07-24T21:40:24.135Z,21.20
2018-07-24T21:42:54.479Z,21.00
2018-07-24T21:45:24.728Z,21.00
2018-07-24T21:47:54.980Z,21.00
2018-07-24T21:50:25.352Z,20.90
2018-07-24T21:52:55.650Z,20.90
2018-07-24T21:55:25.930Z,20.80
2018-07-24T21:57:56.333Z,20.80
2018-07-24T22:00:26.849Z,20.80
2018-07-24T22:02:57.074Z,20.80
2018-07-24T22:05:27.383Z,20.80
2018-07-24T22:07:57.645Z,20.70
2018-07-24T22:10:27.913Z,20.70
2018-07-24T22:12:58.200Z,20.70
2018-07-24T22:15:28.589Z,20.60
2018-07-24T22:17:58.831Z,20.60
2018-07-24T22:20:29.063Z,20.60
2018-07-24T22:22:59.360Z,20.50
2018-07-24T22:25:29.645Z,20.40
2018-07-24T22:27:59.900Z,20.40
2018-07-24T22:30:30.162Z,20.40
2018-07-24T22:33:00.419Z,20.40
2018-07-24T22:35:30.637Z,20.40
2018-07-24T22:38:00.884Z,20.40
2018-07-24T22:40:31.134Z,20.40
2018-07-24T22:43:01.532Z,20.40
2018-07-24T22:45:31.771Z,20.40
2018-07-24T22:48:02.147Z,20.30
2018-07-24T22:50:32.439Z,20.30
2018-07-24T22:53:02.624Z,20.30
2018-07-24T22:55:32.867Z,20.30
2018-07-24T22:58:03.172Z,20.30
2018-07-24T23:00:33.429Z,20.30
2018-07-24T23:03:03.724Z,20.30
2018-07-24T23:05:33.972Z,20.20
2018-07-24T23:08:04.477Z,20.20
2018-07-24T23:10:34.749Z,20.20
2018-07-24T23:13:05.628Z,20.10
2018-07-24T23:15:35.958Z,20.00
2018-07-24T23:18:06.207Z,20.00
2018-07-24T23:20:36.447Z,20.00
2018-07-24T23:23:07.106Z,20.00
2018-07-24T23:25:37.379Z,20.00
2018-07-24T23:28:07.656Z,19.80
2018-07-24T23:30:37.873Z,19.80
2018-07-24T23:33:08.169Z,19.80
2018-07-24T23:35:39.366Z,19.80
2018-07-24T23:38:09.670Z,19.70
2018-07-24T23:40:39.929Z,19.70
2018-07-24T23:43:10.283Z,19.70
2018-07-24T23:45:41.053Z,19.60
2018-07-24T23:48:11.671Z,19.60
2018-07-24T23:50:41.932Z,19.50
2018-07-24T23:53:12.227Z,19.50
2018-07-24T23:55:42.486Z,19.30
2018-07-24T23:58:12.724Z,19.30
